sensor_id;sensor_type;location;lat;lon;timestamp;P1;durP1;ratioP1;P2;durP2;ratioP2
4837;SDS011;2433;48.768;9.154;2022-08-19T00:01:24;8.70;;;7.27;;
4837;SDS011;2433;48.768;9.154;2022-08-19T00:03:51;11.37;;;9.43;;
4837;SDS011;2433;48.768;9.154;2022-08-19T00:06:17;13.33;;;9.30;;
4837;SDS011;2433;48.768;9.154;2022-08-19T00:08:43;12.90;;;9.50;;
4837;SDS011;2433;48.768;9.154;2022-08-19T00:11:08;12.33;;;7.97;;
4837;SDS011;2433;48.768;9.154;2022-08-19T00:13:34;11.97;;;8.27;;
4837;SDS011;2433;48.768;9.154;2022-08-19T00:16:00;13.37;;;9.20;;
4837;SDS011;2433;48.768;9.154;2022-08-19T00:18:26;10.83;;;8.27;;
4837;SDS011;2433;48.768;9.154;2022-08-19T00:20:52;15.73;;;9.80;;
4837;SDS011;2433;48.768;9.154;2022-08-19T00:23:18;13.07;;;8.87;;
4837;SDS011;2433;48.768;9.154;2022-08-19T00:25:44;10.90;;;8.27;;
4837;SDS011;2433;48.768;9.154;2022-08-19T00:28:09;11.57;;;9.03;;
4837;SDS011;2433;48.768;9.154;2022-08-19T00:30:35;10.40;;;8.10;;
4837;SDS011;2433;48.768;9.154;2022-08-19T00:33:01;12.73;;;9.43;;
4837;SDS011;2433;48.768;9.154;2022-08-19T00:35:26;11.37;;;8.97;;
4837;SDS011;2433;48.768;9.154;2022-08-19T00:37:52;10.17;;;8.10;;
4837;SDS011;2433;48.768;9.154;2022-08-19T00:40:18;11.63;;;8.83;;
4837;SDS011;2433;48.768;9.154;2022-08-19T00:42:44;11.67;;;9.17;;
4837;SDS011;2433;48.768;9.154;2022-08-19T00:45:13;13.43;;;9.93;;
4837;SDS011;2433;48.768;9.154;2022-08-19T00:47:43;10.37;;;7.80;;
4837;SDS011;2433;48.768;9.154;2022-08-19T00:50:10;12.00;;;9.70;;
4837;SDS011;2433;48.768;9.154;2022-08-19T00:52:38;11.73;;;8.90;;
4837;SDS011;2433;48.768;9.154;2022-08-19T00:55:09;11.90;;;8.90;;
4837;SDS011;2433;48.768;9.154;2022-08-19T00:57:38;12.83;;;9.33;;
4837;SDS011;2433;48.768;9.154;2022-08-19T01:00:07;11.63;;;9.27;;
4837;SDS011;2433;48.768;9.154;2022-08-19T01:02:36;9.37;;;7.93;;
4837;SDS011;2433;48.768;9.154;2022-08-19T01:05:03;12.17;;;9.50;;
4837;SDS011;2433;48.768;9.154;2022-08-19T01:07:32;11.80;;;9.10;;
4837;SDS011;2433;48.768;9.154;2022-08-19T01:09:59;15.07;;;9.63;;
4837;SDS011;2433;48.768;9.154;2022-08-19T01:12:25;15.17;;;9.13;;
4837;SDS011;2433;48.768;9.154;2022-08-19T01:14:50;15.03;;;9.50;;
4837;SDS011;2433;48.768;9.154;2022-08-19T01:17:16;15.63;;;9.60;;
4837;SDS011;2433;48.768;9.154;2022-08-19T01:19:43;11.27;;;9.10;;
4837;SDS011;2433;48.768;9.154;2022-08-19T01:24:50;13.97;;;9.80;;
4837;SDS011;2433;48.768;9.154;2022-08-19T01:27:16;14.47;;;9.93;;
4837;SDS011;2433;48.768;9.154;2022-08-19T01:29:44;10.63;;;7.97;;
4837;SDS011;2433;48.768;9.154;2022-08-19T01:32:11;12.00;;;9.27;;
4837;SDS011;2433;48.768;9.154;2022-08-19T01:34:40;14.03;;;9.10;;
4837;SDS011;2433;48.768;9.154;2022-08-19T01:37:06;12.20;;;9.93;;
4837;SDS011;2433;48.768;9.154;2022-08-19T01:39:37;13.53;;;9.33;;
4837;SDS011;2433;48.768;9.154;2022-08-19T01:42:05;13.00;;;9.67;;
4837;SDS011;2433;48.768;9.154;2022-08-19T01:44:32;11.27;;;8.03;;
4837;SDS011;2433;48.768;9.154;2022-08-19T01:46:58;12.20;;;9.90;;
4837;SDS011;2433;48.768;9.154;2022-08-19T01:49:24;11.17;;;8.53;;
4837;SDS011;2433;48.768;9.154;2022-08-19T01:51:50;13.07;;;9.67;;
4837;SDS011;2433;48.768;9.154;2022-08-19T01:54:17;12.60;;;8.50;;
4837;SDS011;2433;48.768;9.154;2022-08-19T01:56:43;14.47;;;9.37;;
4837;SDS011;2433;48.768;9.154;2022-08-19T01:59:13;12.97;;;8.80;;
4837;SDS011;2433;48.768;9.154;2022-08-19T02:01:40;12.83;;;9.23;;
4837;SDS011;2433;48.768;9.154;2022-08-19T02:04:05;14.20;;;9.77;;
4837;SDS011;2433;48.768;9.154;2022-08-19T02:06:31;13.33;;;10.50;;
4837;SDS011;2433;48.768;9.154;2022-08-19T02:08:57;13.70;;;9.47;;
4837;SDS011;2433;48.768;9.154;2022-08-19T02:11:33;15.10;;;9.80;;
4837;SDS011;2433;48.768;9.154;2022-08-19T02:14:00;14.73;;;9.90;;
4837;SDS011;2433;48.768;9.154;2022-08-19T02:16:27;15.53;;;10.67;;
4837;SDS011;2433;48.768;9.154;2022-08-19T02:18:53;16.80;;;10.63;;
4837;SDS011;2433;48.768;9.154;2022-08-19T02:21:20;15.97;;;10.50;;
4837;SDS011;2433;48.768;9.154;2022-08-19T02:23:47;14.90;;;9.90;;
4837;SDS011;2433;48.768;9.154;2022-08-19T02:26:14;14.20;;;10.07;;
4837;SDS011;2433;48.768;9.154;2022-08-19T02:28:40;14.03;;;10.50;;
4837;SDS011;2433;48.768;9.154;2022-08-19T02:31:18;16.80;;;11.53;;
4837;SDS011;2433;48.768;9.154;2022-08-19T02:33:46;12.57;;;9.53;;
4837;SDS011;2433;48.768;9.154;2022-08-19T02:36:12;14.67;;;9.67;;
4837;SDS011;2433;48.768;9.154;2022-08-19T02:38:39;14.97;;;9.57;;
4837;SDS011;2433;48.768;9.154;2022-08-19T02:41:06;13.57;;;10.63;;
4837;SDS011;2433;48.768;9.154;2022-08-19T02:43:35;13.70;;;10.40;;
4837;SDS011;2433;48.768;9.154;2022-08-19T02:46:19;16.80;;;11.07;;
4837;SDS011;2433;48.768;9.154;2022-08-19T02:48:49;16.63;;;10.60;;
4837;SDS011;2433;48.768;9.154;2022-08-19T02:51:21;16.40;;;11.23;;
4837;SDS011;2433;48.768;9.154;2022-08-19T02:53:51;18.70;;;12.83;;
4837;SDS011;2433;48.768;9.154;2022-08-19T02:56:18;19.90;;;12.03;;
4837;SDS011;2433;48.768;9.154;2022-08-19T02:58:44;17.23;;;12.33;;
4837;SDS011;2433;48.768;9.154;2022-08-19T03:01:10;14.40;;;10.80;;
4837;SDS011;2433;48.768;9.154;2022-08-19T03:03:37;18.67;;;11.97;;
4837;SDS011;2433;48.768;9.154;2022-08-19T03:06:13;19.87;;;12.60;;
4837;SDS011;2433;48.768;9.154;2022-08-19T03:08:41;19.80;;;11.70;;
4837;SDS011;2433;48.768;9.154;2022-08-19T03:11:17;16.03;;;11.77;;
4837;SDS011;2433;48.768;9.154;2022-08-19T03:13:45;18.33;;;13.50;;
4837;SDS011;2433;48.768;9.154;2022-08-19T03:16:12;18.27;;;11.80;;
4837;SDS011;2433;48.768;9.154;2022-08-19T03:18:38;17.53;;;11.53;;
4837;SDS011;2433;48.768;9.154;2022-08-19T03:21:04;18.90;;;13.60;;
4837;SDS011;2433;48.768;9.154;2022-08-19T03:23:30;17.73;;;11.93;;
4837;SDS011;2433;48.768;9.154;2022-08-19T03:25:55;18.73;;;12.43;;
4837;SDS011;2433;48.768;9.154;2022-08-19T03:28:21;18.40;;;12.47;;
4837;SDS011;2433;48.768;9.154;2022-08-19T03:31:00;18.77;;;11.57;;
4837;SDS011;2433;48.768;9.154;2022-08-19T03:33:27;17.57;;;13.93;;
4837;SDS011;2433;48.768;9.154;2022-08-19T03:38:32;18.40;;;10.40;;
4837;SDS011;2433;48.768;9.154;2022-08-19T03:41:02;20.40;;;14.00;;
4837;SDS011;2433;48.768;9.154;2022-08-19T03:43:28;17.70;;;10.80;;
4837;SDS011;2433;48.768;9.154;2022-08-19T03:46:00;17.70;;;12.67;;
4837;SDS011;2433;48.768;9.154;2022-08-19T03:48:31;21.30;;;15.50;;
4837;SDS011;2433;48.768;9.154;2022-08-19T03:50:57;19.50;;;13.80;;
4837;SDS011;2433;48.768;9.154;2022-08-19T03:53:24;18.43;;;13.00;;
4837;SDS011;2433;48.768;9.154;2022-08-19T03:55:51;19.47;;;12.30;;
4837;SDS011;2433;48.768;9.154;2022-08-19T03:58:18;19.30;;;13.30;;
4837;SDS011;2433;48.768;9.154;2022-08-19T04:00:44;19.57;;;13.60;;
4837;SDS011;2433;48.768;9.154;2022-08-19T04:03:10;20.70;;;14.17;;
4837;SDS011;2433;48.768;9.154;2022-08-19T04:05:35;20.33;;;12.67;;
4837;SDS011;2433;48.768;9.154;2022-08-19T04:08:03;22.10;;;13.33;;
4837;SDS011;2433;48.768;9.154;2022-08-19T04:10:31;21.60;;;14.30;;
4837;SDS011;2433;48.768;9.154;2022-08-19T04:13:00;18.23;;;12.30;;
4837;SDS011;2433;48.768;9.154;2022-08-19T04:15:26;21.73;;;14.03;;
4837;SDS011;2433;48.768;9.154;2022-08-19T04:17:52;21.20;;;14.30;;
4837;SDS011;2433;48.768;9.154;2022-08-19T04:20:18;18.57;;;14.37;;
4837;SDS011;2433;48.768;9.154;2022-08-19T04:22:44;20.40;;;13.50;;
4837;SDS011;2433;48.768;9.154;2022-08-19T04:25:09;22.97;;;15.20;;
4837;SDS011;2433;48.768;9.154;2022-08-19T04:27:35;20.33;;;15.73;;
4837;SDS011;2433;48.768;9.154;2022-08-19T04:30:01;23.40;;;15.43;;
4837;SDS011;2433;48.768;9.154;2022-08-19T04:32:26;20.93;;;14.60;;
4837;SDS011;2433;48.768;9.154;2022-08-19T04:34:53;22.67;;;14.97;;
4837;SDS011;2433;48.768;9.154;2022-08-19T04:37:21;18.23;;;13.70;;
4837;SDS011;2433;48.768;9.154;2022-08-19T04:39:48;21.13;;;16.00;;
4837;SDS011;2433;48.768;9.154;2022-08-19T04:42:32;24.67;;;15.17;;
4837;SDS011;2433;48.768;9.154;2022-08-19T04:45:08;22.80;;;14.13;;
4837;SDS011;2433;48.768;9.154;2022-08-19T04:47:37;19.73;;;14.20;;
4837;SDS011;2433;48.768;9.154;2022-08-19T04:50:03;20.63;;;14.33;;
4837;SDS011;2433;48.768;9.154;2022-08-19T04:52:29;21.50;;;14.60;;
4837;SDS011;2433;48.768;9.154;2022-08-19T04:54:56;17.33;;;13.27;;
4837;SDS011;2433;48.768;9.154;2022-08-19T04:57:22;20.80;;;13.20;;
4837;SDS011;2433;48.768;9.154;2022-08-19T04:59:48;21.60;;;13.43;;
4837;SDS011;2433;48.768;9.154;2022-08-19T05:02:14;21.03;;;14.97;;
4837;SDS011;2433;48.768;9.154;2022-08-19T05:04:39;19.80;;;12.97;;
4837;SDS011;2433;48.768;9.154;2022-08-19T05:07:06;21.27;;;13.90;;
4837;SDS011;2433;48.768;9.154;2022-08-19T05:09:32;20.27;;;12.90;;
4837;SDS011;2433;48.768;9.154;2022-08-19T05:11:58;22.77;;;15.00;;
4837;SDS011;2433;48.768;9.154;2022-08-19T05:14:24;20.80;;;14.67;;
4837;SDS011;2433;48.768;9.154;2022-08-19T05:16:50;21.30;;;14.67;;
4837;SDS011;2433;48.768;9.154;2022-08-19T05:19:16;18.20;;;14.40;;
4837;SDS011;2433;48.768;9.154;2022-08-19T05:22:00;19.10;;;13.23;;
4837;SDS011;2433;48.768;9.154;2022-08-19T05:24:45;23.83;;;14.60;;
4837;SDS011;2433;48.768;9.154;2022-08-19T05:27:11;20.13;;;13.67;;
4837;SDS011;2433;48.768;9.154;2022-08-19T05:29:36;21.80;;;15.23;;
4837;SDS011;2433;48.768;9.154;2022-08-19T05:32:03;21.47;;;14.03;;
4837;SDS011;2433;48.768;9.154;2022-08-19T05:34:30;22.63;;;15.70;;
4837;SDS011;2433;48.768;9.154;2022-08-19T05:36:58;20.77;;;14.33;;
4837;SDS011;2433;48.768;9.154;2022-08-19T05:39:25;22.90;;;13.57;;
4837;SDS011;2433;48.768;9.154;2022-08-19T05:41:54;19.50;;;12.97;;
4837;SDS011;2433;48.768;9.154;2022-08-19T05:44:23;19.40;;;14.00;;
4837;SDS011;2433;48.768;9.154;2022-08-19T05:46:49;19.43;;;13.97;;
4837;SDS011;2433;48.768;9.154;2022-08-19T05:49:18;17.70;;;12.47;;
4837;SDS011;2433;48.768;9.154;2022-08-19T05:51:46;21.57;;;14.30;;
4837;SDS011;2433;48.768;9.154;2022-08-19T05:54:12;20.20;;;13.30;;
4837;SDS011;2433;48.768;9.154;2022-08-19T05:56:39;19.70;;;12.60;;
4837;SDS011;2433;48.768;9.154;2022-08-19T05:59:06;23.70;;;13.87;;
4837;SDS011;2433;48.768;9.154;2022-08-19T06:01:35;21.80;;;14.20;;
4837;SDS011;2433;48.768;9.154;2022-08-19T06:04:02;18.57;;;14.10;;
4837;SDS011;2433;48.768;9.154;2022-08-19T06:06:28;20.90;;;13.93;;
4837;SDS011;2433;48.768;9.154;2022-08-19T06:08:54;19.60;;;13.53;;
4837;SDS011;2433;48.768;9.154;2022-08-19T06:11:22;20.07;;;13.57;;
4837;SDS011;2433;48.768;9.154;2022-08-19T06:13:50;21.17;;;14.60;;
4837;SDS011;2433;48.768;9.154;2022-08-19T06:16:18;21.43;;;13.70;;
4837;SDS011;2433;48.768;9.154;2022-08-19T06:18:51;16.90;;;13.53;;
4837;SDS011;2433;48.768;9.154;2022-08-19T06:21:18;19.50;;;13.23;;
4837;SDS011;2433;48.768;9.154;2022-08-19T06:23:45;19.67;;;12.83;;
4837;SDS011;2433;48.768;9.154;2022-08-19T06:26:13;16.30;;;12.20;;
4837;SDS011;2433;48.768;9.154;2022-08-19T06:28:39;19.73;;;14.80;;
4837;SDS011;2433;48.768;9.154;2022-08-19T06:31:18;23.50;;;14.43;;
4837;SDS011;2433;48.768;9.154;2022-08-19T06:33:46;21.13;;;13.80;;
4837;SDS011;2433;48.768;9.154;2022-08-19T06:36:23;16.67;;;11.60;;
4837;SDS011;2433;48.768;9.154;2022-08-19T06:39:06;23.00;;;14.80;;
4837;SDS011;2433;48.768;9.154;2022-08-19T06:41:34;18.30;;;13.87;;
4837;SDS011;2433;48.768;9.154;2022-08-19T06:44:01;19.43;;;12.87;;
4837;SDS011;2433;48.768;9.154;2022-08-19T06:46:27;19.10;;;13.50;;
4837;SDS011;2433;48.768;9.154;2022-08-19T06:48:53;18.30;;;13.93;;
4837;SDS011;2433;48.768;9.154;2022-08-19T06:51:19;19.90;;;14.80;;
4837;SDS011;2433;48.768;9.154;2022-08-19T06:53:46;17.70;;;11.70;;
4837;SDS011;2433;48.768;9.154;2022-08-19T06:56:16;17.90;;;12.63;;
4837;SDS011;2433;48.768;9.154;2022-08-19T06:58:43;19.93;;;14.47;;
4837;SDS011;2433;48.768;9.154;2022-08-19T07:01:09;21.90;;;13.80;;
4837;SDS011;2433;48.768;9.154;2022-08-19T07:03:35;18.37;;;12.80;;
4837;SDS011;2433;48.768;9.154;2022-08-19T07:06:06;23.07;;;15.13;;
4837;SDS011;2433;48.768;9.154;2022-08-19T07:08:33;21.17;;;14.30;;
4837;SDS011;2433;48.768;9.154;2022-08-19T07:10:59;24.17;;;14.43;;
4837;SDS011;2433;48.768;9.154;2022-08-19T07:13:25;19.73;;;13.77;;
4837;SDS011;2433;48.768;9.154;2022-08-19T07:15:50;19.47;;;14.33;;
4837;SDS011;2433;48.768;9.154;2022-08-19T07:18:17;16.60;;;12.03;;
4837;SDS011;2433;48.768;9.154;2022-08-19T07:20:44;19.37;;;13.13;;
4837;SDS011;2433;48.768;9.154;2022-08-19T07:23:09;21.00;;;12.33;;
4837;SDS011;2433;48.768;9.154;2022-08-19T07:25:36;21.27;;;14.17;;
4837;SDS011;2433;48.768;9.154;2022-08-19T07:28:02;17.70;;;12.30;;
4837;SDS011;2433;48.768;9.154;2022-08-19T07:30:28;18.63;;;14.03;;
4837;SDS011;2433;48.768;9.154;2022-08-19T07:32:54;20.00;;;14.53;;
4837;SDS011;2433;48.768;9.154;2022-08-19T07:35:19;19.53;;;15.17;;
4837;SDS011;2433;48.768;9.154;2022-08-19T07:37:45;16.63;;;13.30;;
4837;SDS011;2433;48.768;9.154;2022-08-19T07:40:11;20.17;;;12.90;;
4837;SDS011;2433;48.768;9.154;2022-08-19T07:42:37;17.57;;;12.27;;
4837;SDS011;2433;48.768;9.154;2022-08-19T07:45:03;20.20;;;12.67;;
4837;SDS011;2433;48.768;9.154;2022-08-19T07:47:30;18.10;;;12.47;;
4837;SDS011;2433;48.768;9.154;2022-08-19T07:49:56;18.03;;;11.00;;
4837;SDS011;2433;48.768;9.154;2022-08-19T07:52:21;18.23;;;12.60;;
4837;SDS011;2433;48.768;9.154;2022-08-19T07:54:47;20.10;;;12.77;;
4837;SDS011;2433;48.768;9.154;2022-08-19T07:57:15;17.60;;;12.10;;
4837;SDS011;2433;48.768;9.154;2022-08-19T07:59:40;22.77;;;13.80;;
4837;SDS011;2433;48.768;9.154;2022-08-19T08:02:06;20.63;;;12.20;;
4837;SDS011;2433;48.768;9.154;2022-08-19T08:04:33;15.90;;;10.77;;
4837;SDS011;2433;48.768;9.154;2022-08-19T08:07:17;19.53;;;12.43;;
4837;SDS011;2433;48.768;9.154;2022-08-19T08:10:02;16.40;;;11.93;;
4837;SDS011;2433;48.768;9.154;2022-08-19T08:12:32;17.73;;;12.87;;
4837;SDS011;2433;48.768;9.154;2022-08-19T08:15:00;14.13;;;11.17;;
4837;SDS011;2433;48.768;9.154;2022-08-19T08:17:29;21.90;;;13.50;;
4837;SDS011;2433;48.768;9.154;2022-08-19T08:19:55;17.03;;;11.57;;
4837;SDS011;2433;48.768;9.154;2022-08-19T08:22:21;18.73;;;11.80;;
4837;SDS011;2433;48.768;9.154;2022-08-19T08:25:12;19.90;;;13.67;;
4837;SDS011;2433;48.768;9.154;2022-08-19T08:27:40;18.30;;;11.17;;
4837;SDS011;2433;48.768;9.154;2022-08-19T08:30:12;17.50;;;11.20;;
4837;SDS011;2433;48.768;9.154;2022-08-19T08:32:40;15.97;;;11.17;;
4837;SDS011;2433;48.768;9.154;2022-08-19T08:35:08;17.27;;;10.50;;
4837;SDS011;2433;48.768;9.154;2022-08-19T08:37:36;16.33;;;11.70;;
4837;SDS011;2433;48.768;9.154;2022-08-19T08:40:03;21.97;;;13.87;;
4837;SDS011;2433;48.768;9.154;2022-08-19T08:42:32;16.53;;;11.67;;
4837;SDS011;2433;48.768;9.154;2022-08-19T08:47:30;14.70;;;10.90;;
4837;SDS011;2433;48.768;9.154;2022-08-19T08:50:05;13.87;;;10.50;;
4837;SDS011;2433;48.768;9.154;2022-08-19T08:52:35;18.73;;;13.07;;
4837;SDS011;2433;48.768;9.154;2022-08-19T08:55:07;18.93;;;12.13;;
4837;SDS011;2433;48.768;9.154;2022-08-19T09:00:17;19.17;;;13.57;;
4837;SDS011;2433;48.768;9.154;2022-08-19T09:02:47;18.03;;;12.10;;
4837;SDS011;2433;48.768;9.154;2022-08-19T09:05:13;16.30;;;11.13;;
4837;SDS011;2433;48.768;9.154;2022-08-19T09:07:43;17.93;;;12.23;;
4837;SDS011;2433;48.768;9.154;2022-08-19T09:10:31;18.10;;;12.03;;
4837;SDS011;2433;48.768;9.154;2022-08-19T09:15:57;15.53;;;11.33;;
4837;SDS011;2433;48.768;9.154;2022-08-19T09:21:14;18.47;;;11.07;;
4837;SDS011;2433;48.768;9.154;2022-08-19T09:23:40;15.43;;;13.00;;
4837;SDS011;2433;48.768;9.154;2022-08-19T09:26:11;14.67;;;10.87;;
4837;SDS011;2433;48.768;9.154;2022-08-19T09:28:39;15.00;;;11.43;;
4837;SDS011;2433;48.768;9.154;2022-08-19T09:31:12;12.23;;;10.93;;
4837;SDS011;2433;48.768;9.154;2022-08-19T09:33:39;16.10;;;11.87;;
4837;SDS011;2433;48.768;9.154;2022-08-19T09:36:09;15.37;;;11.83;;
4837;SDS011;2433;48.768;9.154;2022-08-19T09:38:36;16.07;;;12.10;;
4837;SDS011;2433;48.768;9.154;2022-08-19T09:41:16;16.70;;;12.03;;
4837;SDS011;2433;48.768;9.154;2022-08-19T09:43:44;16.67;;;10.90;;
4837;SDS011;2433;48.768;9.154;2022-08-19T09:46:12;11.50;;;8.43;;
4837;SDS011;2433;48.768;9.154;2022-08-19T09:48:40;14.13;;;10.10;;
4837;SDS011;2433;48.768;9.154;2022-08-19T09:51:11;14.47;;;11.20;;
4837;SDS011;2433;48.768;9.154;2022-08-19T09:53:41;13.50;;;10.57;;
4837;SDS011;2433;48.768;9.154;2022-08-19T09:56:12;17.07;;;11.20;;
4837;SDS011;2433;48.768;9.154;2022-08-19T09:58:38;14.60;;;11.03;;
4837;SDS011;2433;48.768;9.154;2022-08-19T10:01:05;12.97;;;9.03;;
4837;SDS011;2433;48.768;9.154;2022-08-19T10:03:33;11.73;;;10.50;;
4837;SDS011;2433;48.768;9.154;2022-08-19T10:06:00;13.00;;;11.27;;
4837;SDS011;2433;48.768;9.154;2022-08-19T10:08:28;12.67;;;10.03;;
4837;SDS011;2433;48.768;9.154;2022-08-19T10:10:59;12.70;;;10.90;;
4837;SDS011;2433;48.768;9.154;2022-08-19T10:13:26;10.17;;;8.13;;
4837;SDS011;2433;48.768;9.154;2022-08-19T10:15:53;12.20;;;9.00;;
4837;SDS011;2433;48.768;9.154;2022-08-19T10:18:22;13.20;;;9.63;;
4837;SDS011;2433;48.768;9.154;2022-08-19T10:20:49;13.33;;;9.30;;
4837;SDS011;2433;48.768;9.154;2022-08-19T10:23:16;11.90;;;9.90;;
4837;SDS011;2433;48.768;9.154;2022-08-19T10:25:42;12.67;;;9.87;;
4837;SDS011;2433;48.768;9.154;2022-08-19T10:28:08;12.40;;;10.03;;
4837;SDS011;2433;48.768;9.154;2022-08-19T10:30:37;9.80;;;8.77;;
4837;SDS011;2433;48.768;9.154;2022-08-19T10:33:04;13.27;;;10.40;;
4837;SDS011;2433;48.768;9.154;2022-08-19T10:35:30;9.77;;;8.30;;
4837;SDS011;2433;48.768;9.154;2022-08-19T10:37:56;12.67;;;9.53;;
4837;SDS011;2433;48.768;9.154;2022-08-19T10:40:27;11.40;;;9.60;;
4837;SDS011;2433;48.768;9.154;2022-08-19T10:42:53;10.80;;;8.07;;
4837;SDS011;2433;48.768;9.154;2022-08-19T10:45:20;12.67;;;9.07;;
4837;SDS011;2433;48.768;9.154;2022-08-19T10:47:50;11.20;;;7.47;;
4837;SDS011;2433;48.768;9.154;2022-08-19T10:50:15;10.33;;;8.73;;
4837;SDS011;2433;48.768;9.154;2022-08-19T10:53:03;9.30;;;7.60;;
4837;SDS011;2433;48.768;9.154;2022-08-19T10:55:35;11.07;;;8.67;;
4837;SDS011;2433;48.768;9.154;2022-08-19T10:58:20;10.10;;;7.73;;
4837;SDS011;2433;48.768;9.154;2022-08-19T11:01:05;9.17;;;7.37;;
4837;SDS011;2433;48.768;9.154;2022-08-19T11:03:31;9.10;;;7.13;;
4837;SDS011;2433;48.768;9.154;2022-08-19T11:05:57;12.00;;;7.80;;
4837;SDS011;2433;48.768;9.154;2022-08-19T11:08:26;8.23;;;7.27;;
4837;SDS011;2433;48.768;9.154;2022-08-19T11:10:53;11.40;;;8.43;;
4837;SDS011;2433;48.768;9.154;2022-08-19T11:13:26;10.00;;;8.40;;
4837;SDS011;2433;48.768;9.154;2022-08-19T11:15:57;9.00;;;7.40;;
4837;SDS011;2433;48.768;9.154;2022-08-19T11:18:24;11.40;;;9.23;;
4837;SDS011;2433;48.768;9.154;2022-08-19T11:20:50;11.40;;;8.03;;
4837;SDS011;2433;48.768;9.154;2022-08-19T11:23:15;8.70;;;6.90;;
4837;SDS011;2433;48.768;9.154;2022-08-19T11:25:41;9.40;;;7.70;;
4837;SDS011;2433;48.768;9.154;2022-08-19T11:28:06;8.90;;;7.80;;
4837;SDS011;2433;48.768;9.154;2022-08-19T11:30:32;8.80;;;7.97;;
4837;SDS011;2433;48.768;9.154;2022-08-19T11:32:58;7.23;;;6.27;;
4837;SDS011;2433;48.768;9.154;2022-08-19T11:35:25;8.60;;;7.00;;
4837;SDS011;2433;48.768;9.154;2022-08-19T11:37:51;7.67;;;6.90;;
4837;SDS011;2433;48.768;9.154;2022-08-19T11:40:17;10.17;;;8.10;;
4837;SDS011;2433;48.768;9.154;2022-08-19T11:42:43;10.93;;;8.57;;
4837;SDS011;2433;48.768;9.154;2022-08-19T11:45:25;8.87;;;6.90;;
4837;SDS011;2433;48.768;9.154;2022-08-19T11:47:52;8.17;;;6.90;;
4837;SDS011;2433;48.768;9.154;2022-08-19T11:50:18;8.43;;;6.93;;
4837;SDS011;2433;48.768;9.154;2022-08-19T11:52:44;8.23;;;7.10;;
4837;SDS011;2433;48.768;9.154;2022-08-19T11:55:10;9.43;;;7.20;;
4837;SDS011;2433;48.768;9.154;2022-08-19T11:57:37;10.17;;;6.97;;
4837;SDS011;2433;48.768;9.154;2022-08-19T12:00:03;6.60;;;5.87;;
4837;SDS011;2433;48.768;9.154;2022-08-19T12:02:31;8.97;;;7.53;;
4837;SDS011;2433;48.768;9.154;2022-08-19T12:04:57;7.53;;;6.70;;
4837;SDS011;2433;48.768;9.154;2022-08-19T12:07:22;8.93;;;6.50;;
4837;SDS011;2433;48.768;9.154;2022-08-19T12:09:48;8.53;;;7.13;;
4837;SDS011;2433;48.768;9.154;2022-08-19T12:12:13;8.20;;;6.93;;
4837;SDS011;2433;48.768;9.154;2022-08-19T12:14:39;9.33;;;7.60;;
4837;SDS011;2433;48.768;9.154;2022-08-19T12:17:04;9.23;;;8.07;;
4837;SDS011;2433;48.768;9.154;2022-08-19T12:19:32;9.50;;;7.83;;
4837;SDS011;2433;48.768;9.154;2022-08-19T12:21:59;8.60;;;6.70;;
4837;SDS011;2433;48.768;9.154;2022-08-19T12:24:32;8.37;;;7.27;;
4837;SDS011;2433;48.768;9.154;2022-08-19T12:26:58;8.50;;;7.17;;
4837;SDS011;2433;48.768;9.154;2022-08-19T12:29:26;8.23;;;7.40;;
4837;SDS011;2433;48.768;9.154;2022-08-19T12:31:55;9.17;;;6.80;;
4837;SDS011;2433;48.768;9.154;2022-08-19T12:34:28;8.10;;;6.80;;
4837;SDS011;2433;48.768;9.154;2022-08-19T12:36:58;7.80;;;6.97;;
4837;SDS011;2433;48.768;9.154;2022-08-19T12:39:24;8.80;;;7.20;;
4837;SDS011;2433;48.768;9.154;2022-08-19T12:41:50;9.97;;;7.50;;
4837;SDS011;2433;48.768;9.154;2022-08-19T12:44:16;10.03;;;7.23;;
4837;SDS011;2433;48.768;9.154;2022-08-19T12:46:42;7.93;;;7.03;;
4837;SDS011;2433;48.768;9.154;2022-08-19T12:49:07;9.67;;;7.50;;
4837;SDS011;2433;48.768;9.154;2022-08-19T12:51:33;10.53;;;7.70;;
4837;SDS011;2433;48.768;9.154;2022-08-19T12:53:58;11.60;;;7.57;;
4837;SDS011;2433;48.768;9.154;2022-08-19T12:56:24;9.67;;;8.67;;
4837;SDS011;2433;48.768;9.154;2022-08-19T12:58:50;8.00;;;7.13;;
4837;SDS011;2433;48.768;9.154;2022-08-19T13:01:15;9.87;;;8.23;;
4837;SDS011;2433;48.768;9.154;2022-08-19T13:03:42;9.37;;;7.50;;
4837;SDS011;2433;48.768;9.154;2022-08-19T13:06:09;8.93;;;8.00;;
4837;SDS011;2433;48.768;9.154;2022-08-19T13:08:36;9.63;;;8.40;;
4837;SDS011;2433;48.768;9.154;2022-08-19T13:11:08;9.23;;;7.57;;
4837;SDS011;2433;48.768;9.154;2022-08-19T13:13:39;10.97;;;7.43;;
4837;SDS011;2433;48.768;9.154;2022-08-19T13:16:08;9.83;;;8.37;;
4837;SDS011;2433;48.768;9.154;2022-08-19T13:18:35;9.20;;;6.37;;
4837;SDS011;2433;48.768;9.154;2022-08-19T13:21:04;9.90;;;8.30;;
4837;SDS011;2433;48.768;9.154;2022-08-19T13:23:32;9.97;;;8.13;;
4837;SDS011;2433;48.768;9.154;2022-08-19T13:25:59;12.47;;;10.60;;
4837;SDS011;2433;48.768;9.154;2022-08-19T13:28:27;17.37;;;12.10;;
4837;SDS011;2433;48.768;9.154;2022-08-19T13:31:20;18.40;;;13.70;;
4837;SDS011;2433;48.768;9.154;2022-08-19T13:34:06;16.47;;;11.27;;
4837;SDS011;2433;48.768;9.154;2022-08-19T13:36:32;17.67;;;14.13;;
4837;SDS011;2433;48.768;9.154;2022-08-19T13:38:58;20.00;;;12.40;;
4837;SDS011;2433;48.768;9.154;2022-08-19T13:41:24;16.97;;;13.10;;
4837;SDS011;2433;48.768;9.154;2022-08-19T13:43:50;22.17;;;14.10;;
4837;SDS011;2433;48.768;9.154;2022-08-19T13:46:15;19.27;;;13.93;;
4837;SDS011;2433;48.768;9.154;2022-08-19T13:48:41;21.07;;;14.50;;
4837;SDS011;2433;48.768;9.154;2022-08-19T13:51:07;20.27;;;14.00;;
4837;SDS011;2433;48.768;9.154;2022-08-19T13:53:38;19.70;;;15.03;;
4837;SDS011;2433;48.768;9.154;2022-08-19T13:56:08;19.70;;;14.50;;
4837;SDS011;2433;48.768;9.154;2022-08-19T13:58:35;21.40;;;15.73;;
4837;SDS011;2433;48.768;9.154;2022-08-19T14:01:02;21.97;;;15.13;;
4837;SDS011;2433;48.768;9.154;2022-08-19T14:03:28;22.17;;;14.03;;
4837;SDS011;2433;48.768;9.154;2022-08-19T14:05:54;24.60;;;15.50;;
4837;SDS011;2433;48.768;9.154;2022-08-19T14:08:19;25.20;;;16.70;;
4837;SDS011;2433;48.768;9.154;2022-08-19T14:10:45;21.07;;;14.37;;
4837;SDS011;2433;48.768;9.154;2022-08-19T14:13:13;24.57;;;15.97;;
4837;SDS011;2433;48.768;9.154;2022-08-19T14:15:40;24.70;;;16.53;;
4837;SDS011;2433;48.768;9.154;2022-08-19T14:18:06;23.30;;;16.43;;
4837;SDS011;2433;48.768;9.154;2022-08-19T14:20:35;23.33;;;16.63;;
4837;SDS011;2433;48.768;9.154;2022-08-19T14:23:00;25.13;;;16.03;;
4837;SDS011;2433;48.768;9.154;2022-08-19T14:25:27;21.53;;;15.30;;
4837;SDS011;2433;48.768;9.154;2022-08-19T14:27:53;23.70;;;16.47;;
4837;SDS011;2433;48.768;9.154;2022-08-19T14:30:21;22.20;;;16.03;;
4837;SDS011;2433;48.768;9.154;2022-08-19T14:32:50;17.47;;;13.73;;
4837;SDS011;2433;48.768;9.154;2022-08-19T14:35:16;16.97;;;13.30;;
4837;SDS011;2433;48.768;9.154;2022-08-19T14:37:43;16.30;;;12.73;;
4837;SDS011;2433;48.768;9.154;2022-08-19T14:40:10;24.07;;;14.33;;
4837;SDS011;2433;48.768;9.154;2022-08-19T14:42:37;21.30;;;15.50;;
4837;SDS011;2433;48.768;9.154;2022-08-19T14:45:03;18.00;;;13.87;;
4837;SDS011;2433;48.768;9.154;2022-08-19T14:47:30;19.00;;;13.07;;
4837;SDS011;2433;48.768;9.154;2022-08-19T14:49:56;19.23;;;15.30;;
4837;SDS011;2433;48.768;9.154;2022-08-19T14:52:21;19.30;;;12.73;;
4837;SDS011;2433;48.768;9.154;2022-08-19T14:54:47;18.13;;;12.53;;
4837;SDS011;2433;48.768;9.154;2022-08-19T14:57:13;21.00;;;13.47;;
4837;SDS011;2433;48.768;9.154;2022-08-19T14:59:40;16.73;;;13.00;;
4837;SDS011;2433;48.768;9.154;2022-08-19T15:02:06;13.33;;;10.97;;
4837;SDS011;2433;48.768;9.154;2022-08-19T15:04:32;17.33;;;11.57;;
4837;SDS011;2433;48.768;9.154;2022-08-19T15:06:57;16.70;;;11.70;;
4837;SDS011;2433;48.768;9.154;2022-08-19T15:09:23;13.20;;;11.07;;
4837;SDS011;2433;48.768;9.154;2022-08-19T15:11:49;16.20;;;13.17;;
4837;SDS011;2433;48.768;9.154;2022-08-19T15:14:15;15.90;;;10.97;;
4837;SDS011;2433;48.768;9.154;2022-08-19T15:16:41;16.53;;;11.70;;